Time;durP1;ratioP1;P1;durP2;ratioP2;P2;SDS_P1;SDS_P2;PMS_P1;PMS_P2;Temp;Humidity;BMP_temperature;BMP_pressure;BME280_temperature;BME280_humidity;BME280_pressure;Samples;Min_cycle;Max_cycle;Signal;HPM_P1;HPM_P2
2023/05/07 00:00:06;;;;;;;0.80;0.80;;;-0.20;99.90;;;;;;5058048;28;20231;-69
2023/05/07 00:02:33;;;;;;;0.90;0.90;;;-0.20;99.90;;;;;;5072871;28;20209;-70
2023/05/07 00:04:58;;;;;;;0.70;0.70;;;-0.30;99.90;;;;;;5073794;28;20250;-69
2023/05/07 00:07:24;;;;;;;0.80;0.80;;;-0.40;99.90;;;;;;5069447;28;20217;-70
2023/05/07 00:09:50;;;;;;;0.70;0.70;;;-0.40;99.90;;;;;;5053411;28;20193;-69
2023/05/07 00:12:16;;;;;;;1.80;1.67;;;-0.50;99.90;;;;;;5053479;28;20193;-72
2023/05/07 00:14:41;;;;;;;0.90;0.90;;;-0.60;99.90;;;;;;5053341;28;20225;-71
2023/05/07 00:17:07;;;;;;;0.80;0.80;;;-0.60;99.90;;;;;;5053593;28;20209;-70
2023/05/07 00:19:33;;;;;;;0.70;0.70;;;-0.70;99.90;;;;;;5053393;28;20190;-71
2023/05/07 00:21:59;;;;;;;0.60;0.60;;;-0.80;99.90;;;;;;5051807;28;20197;-69
2023/05/07 00:24:25;;;;;;;0.90;0.90;;;-0.80;99.90;;;;;;5052290;28;20189;-70
2023/05/07 00:26:50;;;;;;;0.80;0.80;;;-0.80;99.90;;;;;;5052869;28;20567;-69
2023/05/07 00:29:16;;;;;;;0.90;0.90;;;-0.90;99.90;;;;;;5051712;28;20258;-69
2023/05/07 00:31:42;;;;;;;0.80;0.80;;;-0.90;99.90;;;;;;5052786;28;20201;-70
2023/05/07 00:34:08;;;;;;;0.80;0.80;;;-0.90;99.90;;;;;;5053015;28;20196;-70
2023/05/07 00:36:33;;;;;;;0.80;0.80;;;-1.00;99.90;;;;;;5052630;28;20197;-69
2023/05/07 00:39:01;;;;;;;0.73;0.73;;;-1.00;99.90;;;;;;5047933;28;20568;-70
2023/05/07 00:41:27;;;;;;;0.70;0.70;;;-1.00;99.90;;;;;;5037482;28;20561;-70
2023/05/07 00:43:53;;;;;;;0.80;0.80;;;-1.00;99.90;;;;;;5052897;28;20209;-69
2023/05/07 00:46:20;;;;;;;0.73;0.73;;;-1.00;99.90;;;;;;5058852;28;20258;-69
2023/05/07 00:48:47;;;;;;;0.60;0.60;;;-1.00;99.90;;;;;;5059347;28;20554;-69
2023/05/07 00:51:14;;;;;;;0.77;0.77;;;-1.00;99.90;;;;;;5057995;28;20193;-69
2023/05/07 00:53:39;;;;;;;0.65;0.65;;;-1.00;99.90;;;;;;5059259;28;20224;-69
2023/05/07 00:56:06;;;;;;;0.93;0.93;;;-1.00;99.90;;;;;;5062105;28;20600;-69
2023/05/07 00:58:33;;;;;;;0.55;0.55;;;-1.10;99.90;;;;;;5079106;28;20558;-69
2023/05/07 01:00:59;;;;;;;0.80;0.80;;;-1.10;99.90;;;;;;5078888;28;20188;-67
2023/05/07 01:03:25;;;;;;;0.90;0.90;;;-1.10;99.90;;;;;;5076524;23;20236;-70
2023/05/07 01:05:54;;;;;;;0.80;0.80;;;-1.10;99.90;;;;;;5058646;28;20524;-70
2023/05/07 01:08:22;;;;;;;0.73;0.73;;;-1.20;99.90;;;;;;5059016;28;20660;-70
2023/05/07 01:10:48;;;;;;;0.85;0.85;;;-1.20;99.90;;;;;;5057813;28;20667;-70
2023/05/07 01:13:15;;;;;;;0.70;0.70;;;-1.30;99.90;;;;;;5058020;28;20204;-70
2023/05/07 01:15:41;;;;;;;0.80;0.80;;;-1.30;99.90;;;;;;5057823;28;20209;-70
2023/05/07 01:18:07;;;;;;;0.60;0.60;;;-1.30;99.90;;;;;;5059281;28;20209;-70
2023/05/07 01:20:33;;;;;;;0.70;0.70;;;-1.30;99.90;;;;;;5059095;28;20220;-71
2023/05/07 01:23:00;;;;;;;0.70;0.70;;;-1.30;99.90;;;;;;5059164;28;20189;-70
2023/05/07 01:25:27;;;;;;;0.70;0.70;;;-1.40;99.90;;;;;;5059059;28;20699;-70
2023/05/07 01:27:52;;;;;;;0.70;0.70;;;-1.40;99.90;;;;;;5059028;28;20790;-70
2023/05/07 01:30:21;;;;;;;0.70;0.70;;;-1.40;99.90;;;;;;5058420;28;20201;-69
2023/05/07 01:32:55;;;;;;;0.70;0.70;;;-1.50;99.90;;;;;;5059179;28;20207;-70
2023/05/07 01:35:25;;;;;;;0.70;0.70;;;-1.50;99.90;;;;;;5057659;28;20196;-69
2023/05/07 01:37:52;;;;;;;0.80;0.80;;;-1.50;99.90;;;;;;5057374;28;20208;-70
2023/05/07 01:40:18;;;;;;;0.68;0.68;;;-1.50;99.90;;;;;;5059255;28;20213;-70
2023/05/07 01:42:45;;;;;;;0.70;0.70;;;-1.60;99.90;;;;;;5057665;28;20205;-70
2023/05/07 01:45:11;;;;;;;0.70;0.70;;;-1.60;99.90;;;;;;5059205;28;20655;-70
2023/05/07 01:47:38;;;;;;;0.70;0.70;;;-1.50;99.90;;;;;;5057466;28;20228;-70
2023/05/07 01:50:05;;;;;;;0.70;0.70;;;-1.60;99.90;;;;;;5059066;28;20189;-70
2023/05/07 01:52:31;;;;;;;0.70;0.70;;;-1.60;99.90;;;;;;5061734;28;20312;-70
2023/05/07 01:54:57;;;;;;;0.68;0.68;;;-1.70;99.90;;;;;;5078922;28;20587;-69
2023/05/07 01:57:23;;;;;;;0.73;0.73;;;-1.70;99.90;;;;;;5074487;28;20262;-70
2023/05/07 01:59:48;;;;;;;0.70;0.70;;;-1.70;99.90;;;;;;5072688;28;20225;-69
2023/05/07 02:02:15;;;;;;;0.73;0.73;;;-1.70;99.90;;;;;;5054660;28;20272;-69
2023/05/07 02:04:40;;;;;;;0.73;0.73;;;-1.70;99.90;;;;;;5054534;28;20251;-70
2023/05/07 02:07:06;;;;;;;0.70;0.70;;;-1.70;99.90;;;;;;5055600;28;20193;-70
2023/05/07 02:09:32;;;;;;;0.77;0.77;;;-1.70;99.90;;;;;;5054891;28;20208;-69
2023/05/07 02:11:58;;;;;;;0.70;0.70;;;-1.70;99.90;;;;;;5075028;28;20200;-70
2023/05/07 02:14:23;;;;;;;0.70;0.70;;;-1.70;99.90;;;;;;5075436;28;20193;-70
2023/05/07 02:16:49;;;;;;;0.70;0.70;;;-1.70;99.90;;;;;;5075475;28;20205;-70
2023/05/07 02:19:15;;;;;;;0.80;0.80;;;-1.70;99.90;;;;;;5075012;28;20197;-70
2023/05/07 02:21:41;;;;;;;0.70;0.70;;;-1.70;99.90;;;;;;5075258;28;20628;-70
2023/05/07 02:24:07;;;;;;;0.60;0.60;;;-1.70;99.90;;;;;;5075293;28;20193;-69
2023/05/07 02:26:33;;;;;;;0.70;0.70;;;-1.80;99.90;;;;;;5075046;28;20219;-70
2023/05/07 02:28:59;;;;;;;0.70;0.70;;;-1.80;99.90;;;;;;5057173;28;20254;-70
2023/05/07 02:31:25;;;;;;;0.65;0.65;;;-1.80;99.90;;;;;;5074960;28;20671;-69
2023/05/07 02:33:51;;;;;;;0.90;0.90;;;-1.80;99.90;;;;;;5075276;28;20197;-70
2023/05/07 02:36:16;;;;;;;0.80;0.80;;;-1.80;99.90;;;;;;5075088;28;20197;-69
2023/05/07 02:38:42;;;;;;;0.80;0.80;;;-1.80;99.90;;;;;;5069127;28;20268;-69
2023/05/07 02:41:08;;;;;;;0.70;0.70;;;-1.80;99.90;;;;;;5075128;28;20664;-69
2023/05/07 02:43:33;;;;;;;0.65;0.65;;;-1.90;99.90;;;;;;5074720;28;20204;-69
2023/05/07 02:46:07;;;;;;;0.65;0.65;;;-1.90;99.90;;;;;;5074873;28;20189;-70
2023/05/07 02:48:33;;;;;;;0.80;0.80;;;-1.90;99.90;;;;;;5059110;28;20722;-70
2023/05/07 02:50:59;;;;;;;0.80;0.80;;;-2.00;99.90;;;;;;5076295;28;20195;-70
2023/05/07 02:53:26;;;;;;;0.70;0.70;;;-2.00;99.90;;;;;;5076661;28;20188;-70
2023/05/07 02:56:00;;;;;;;0.70;0.70;;;-2.00;99.90;;;;;;5075585;28;20666;-71
2023/05/07 02:58:26;;;;;;;0.70;0.70;;;-2.00;99.90;;;;;;5056503;28;20675;-70
2023/05/07 03:00:52;;;;;;;0.70;0.70;;;-2.00;99.90;;;;;;5074527;28;20410;-70
2023/05/07 03:03:18;;;;;;;0.80;0.80;;;-2.00;99.90;;;;;;5073462;28;20239;-71
2023/05/07 03:05:44;;;;;;;0.60;0.60;;;-2.10;99.90;;;;;;5074278;28;20200;-70
2023/05/07 03:08:10;;;;;;;0.70;0.70;;;-2.10;99.90;;;;;;5073505;28;20659;-69
2023/05/07 03:10:36;;;;;;;0.90;0.90;;;-2.10;99.90;;;;;;5074011;28;20275;-70
2023/05/07 03:13:03;;;;;;;0.90;0.90;;;-2.10;99.90;;;;;;5074403;28;20208;-70
2023/05/07 03:15:29;;;;;;;0.70;0.70;;;-2.00;99.90;;;;;;5066745;28;20198;-70
2023/05/07 03:17:55;;;;;;;0.70;0.70;;;-2.00;99.90;;;;;;5054234;28;20205;-70
2023/05/07 03:20:21;;;;;;;0.70;0.70;;;-2.00;99.90;;;;;;5053594;28;20190;-69
2023/05/07 03:22:47;;;;;;;0.60;0.60;;;-2.00;99.90;;;;;;5073752;28;20739;-70
2023/05/07 03:25:13;;;;;;;0.70;0.70;;;-1.90;99.90;;;;;;5074188;28;20275;-70
2023/05/07 03:27:39;;;;;;;0.70;0.70;;;-1.90;99.90;;;;;;5073836;28;20192;-70
2023/05/07 03:30:06;;;;;;;0.80;0.80;;;-1.90;99.90;;;;;;5073760;28;20767;-69
2023/05/07 03:32:32;;;;;;;1.42;1.33;;;-1.90;99.90;;;;;;5073272;28;20211;-69
2023/05/07 03:34:58;;;;;;;0.73;0.73;;;-1.90;99.90;;;;;;5055742;28;20217;-69
2023/05/07 03:37:24;;;;;;;0.60;0.60;;;-1.90;99.90;;;;;;5073364;28;20687;-69
2023/05/07 03:39:49;;;;;;;0.80;0.80;;;-1.80;99.90;;;;;;5073941;28;20200;-69
2023/05/07 03:42:15;;;;;;;0.73;0.73;;;-1.70;99.90;;;;;;5055923;28;20276;-69
2023/05/07 03:44:41;;;;;;;0.70;0.70;;;-1.70;99.90;;;;;;5057329;28;20197;-69
2023/05/07 03:47:07;;;;;;;0.60;0.60;;;-1.70;99.90;;;;;;5094059;28;20184;-69
2023/05/07 03:49:33;;;;;;;0.60;0.60;;;-1.70;99.90;;;;;;5075381;28;20200;-69
2023/05/07 03:51:59;;;;;;;0.70;0.70;;;-1.60;99.90;;;;;;5093902;28;20254;-69
2023/05/07 03:54:24;;;;;;;0.70;0.70;;;-1.60;99.90;;;;;;5073359;28;20588;-70
2023/05/07 03:56:50;;;;;;;0.70;0.70;;;-1.60;99.90;;;;;;5064157;28;20240;-69
2023/05/07 03:59:16;;;;;;;0.77;0.77;;;-1.50;99.90;;;;;;5073560;28;20663;-69
2023/05/07 04:01:41;;;;;;;0.77;0.77;;;-1.40;99.90;;;;;;5073060;28;20192;-70
2023/05/07 04:04:07;;;;;;;0.60;0.60;;;-1.30;99.90;;;;;;5053495;28;20247;-70
2023/05/07 04:06:33;;;;;;;0.70;0.70;;;-1.20;99.90;;;;;;5053288;28;20272;-70
2023/05/07 04:08:59;;;;;;;0.70;0.70;;;-1.10;99.90;;;;;;5035198;28;20205;-69
2023/05/07 04:11:25;;;;;;;0.70;0.70;;;-0.90;99.90;;;;;;5052714;28;20189;-70
2023/05/07 04:13:50;;;;;;;0.63;0.63;;;-0.80;99.90;;;;;;5035405;28;20197;-70
2023/05/07 04:16:16;;;;;;;0.90;0.90;;;-0.60;99.90;;;;;;5053260;28;20207;-70
2023/05/07 04:18:42;;;;;;;0.70;0.70;;;-0.50;99.90;;;;;;5053099;28;20258;-69
2023/05/07 04:21:18;;;;;;;0.75;0.75;;;-0.30;99.90;;;;;;5034746;28;20196;-70
2023/05/07 04:23:46;;;;;;;0.70;0.70;;;-0.10;99.90;;;;;;5035101;28;20201;-70
2023/05/07 04:26:12;;;;;;;0.80;0.80;;;0.10;99.90;;;;;;5035072;28;20197;-70
2023/05/07 04:28:39;;;;;;;0.73;0.73;;;0.20;99.90;;;;;;5035215;28;20201;-69
2023/05/07 04:31:05;;;;;;;0.80;0.80;;;0.40;99.90;;;;;;5052729;28;20272;-70
2023/05/07 04:33:31;;;;;;;0.80;0.80;;;0.50;99.90;;;;;;5052941;28;20276;-70
2023/05/07 04:35:57;;;;;;;0.80;0.80;;;0.60;99.90;;;;;;5052944;28;20229;-70
2023/05/07 04:38:25;;;;;;;0.77;0.77;;;0.80;99.90;;;;;;5052385;28;20291;-70
2023/05/07 04:40:51;;;;;;;0.88;0.88;;;0.90;99.90;;;;;;5053876;28;20186;-70
2023/05/07 04:43:17;;;;;;;0.77;0.77;;;1.00;99.90;;;;;;5073004;28;20254;-70
2023/05/07 04:45:43;;;;;;;0.80;0.80;;;1.10;99.90;;;;;;5072845;28;20192;-70
2023/05/07 04:48:09;;;;;;;0.60;0.60;;;1.30;99.90;;;;;;5055083;28;20197;-70
2023/05/07 04:50:35;;;;;;;0.73;0.73;;;1.30;99.90;;;;;;5053179;28;20194;-70
2023/05/07 04:53:01;;;;;;;0.73;0.73;;;1.50;99.90;;;;;;5034432;28;20733;-70
2023/05/07 04:55:26;;;;;;;0.77;0.77;;;1.60;99.90;;;;;;5052668;28;20244;-70
2023/05/07 04:57:53;;;;;;;0.82;0.82;;;1.70;99.90;;;;;;5034884;28;20685;-70
2023/05/07 05:00:19;;;;;;;0.80;0.80;;;1.80;99.90;;;;;;5034845;28;20228;-70
2023/05/07 05:02:45;;;;;;;0.80;0.80;;;1.90;99.90;;;;;;5060989;28;20231;-70
2023/05/07 05:05:11;;;;;;;0.52;0.52;;;2.00;99.90;;;;;;5072872;28;20192;-70
2023/05/07 05:07:37;;;;;;;0.80;0.80;;;2.10;99.90;;;;;;5072531;28;20197;-70
2023/05/07 05:10:04;;;;;;;0.70;0.70;;;2.20;99.90;;;;;;5072631;28;20203;-70
2023/05/07 05:12:30;;;;;;;0.73;0.73;;;2.30;99.90;;;;;;5072554;28;20560;-70
2023/05/07 05:14:56;;;;;;;0.63;0.63;;;2.50;99.90;;;;;;5072660;28;20197;-70
2023/05/07 05:17:22;;;;;;;0.82;0.82;;;2.60;99.90;;;;;;5054493;28;20301;-70
2023/05/07 05:19:47;;;;;;;0.68;0.68;;;2.80;99.90;;;;;;5054541;28;20283;-70
2023/05/07 05:22:13;;;;;;;0.70;0.70;;;2.90;99.90;;;;;;5072556;28;20185;-70
2023/05/07 05:24:39;;;;;;;0.80;0.80;;;3.10;99.90;;;;;;5072496;28;20195;-70
2023/05/07 05:27:05;;;;;;;0.80;0.80;;;3.20;99.90;;;;;;5072387;28;20200;-70
2023/05/07 05:29:31;;;;;;;0.80;0.80;;;3.30;99.90;;;;;;5071818;28;20647;-70
2023/05/07 05:31:57;;;;;;;0.90;0.90;;;3.50;99.90;;;;;;5074615;28;20754;-70
2023/05/07 05:34:23;;;;;;;0.85;0.85;;;3.50;99.90;;;;;;5058223;28;20295;-70
2023/05/07 05:36:49;;;;;;;0.80;0.80;;;3.70;99.90;;;;;;5076114;28;20201;-70
2023/05/07 05:39:14;;;;;;;0.80;0.80;;;3.80;99.90;;;;;;5076592;28;20214;-71
2023/05/07 05:41:40;;;;;;;0.90;0.90;;;4.10;99.90;;;;;;5078109;28;20223;-71
2023/05/07 05:44:06;;;;;;;0.70;0.70;;;4.10;99.90;;;;;;5096461;28;20674;-71
2023/05/07 05:46:32;;;;;;;0.80;0.80;;;4.30;99.90;;;;;;5085063;28;20212;-71
2023/05/07 05:48:58;;;;;;;0.70;0.70;;;4.50;99.90;;;;;;5075952;28;20612;-70
2023/05/07 05:51:24;;;;;;;0.80;0.80;;;4.60;99.90;;;;;;5071082;28;20205;-70
2023/05/07 05:53:49;;;;;;;0.70;0.70;;;4.70;99.90;;;;;;5075961;28;20539;-71
2023/05/07 05:56:16;;;;;;;0.80;0.80;;;4.80;99.90;;;;;;5069859;28;20202;-71
2023/05/07 05:58:42;;;;;;;0.80;0.80;;;4.90;99.90;;;;;;5075835;28;20204;-71
2023/05/07 06:01:07;;;;;;;0.80;0.80;;;5.10;99.90;;;;;;5068755;28;20201;-71
2023/05/07 06:03:34;;;;;;;0.70;0.70;;;5.30;99.90;;;;;;5075294;28;20228;-71
2023/05/07 06:06:02;;;;;;;0.70;0.70;;;5.40;99.90;;;;;;5075691;28;20538;-71
2023/05/07 06:08:31;;;;;;;0.80;0.80;;;5.60;99.90;;;;;;5074869;28;20245;-71
2023/05/07 06:10:56;;;;;;;0.70;0.70;;;5.80;99.90;;;;;;5075119;28;20197;-70
2023/05/07 06:13:22;;;;;;;0.80;0.80;;;6.00;99.90;;;;;;5075342;28;20200;-70
2023/05/07 06:15:49;;;;;;;0.80;0.80;;;6.10;99.90;;;;;;5075520;28;20244;-70
2023/05/07 06:18:15;;;;;;;0.80;0.80;;;6.20;99.90;;;;;;5075522;28;20213;-70
2023/05/07 06:20:40;;;;;;;0.80;0.80;;;6.40;99.90;;;;;;5075109;28;20242;-70
2023/05/07 06:23:06;;;;;;;0.70;0.70;;;6.50;99.90;;;;;;5075091;28;20188;-70
2023/05/07 06:25:32;;;;;;;0.60;0.60;;;6.70;99.90;;;;;;5075305;28;20645;-71
2023/05/07 06:27:57;;;;;;;0.70;0.70;;;6.90;99.90;;;;;;5075336;28;20275;-71
2023/05/07 06:30:23;;;;;;;0.70;0.70;;;7.10;99.90;;;;;;5057064;28;20196;-70
2023/05/07 06:32:49;;;;;;;0.70;0.70;;;7.10;99.90;;;;;;5075268;28;20284;-71
2023/05/07 06:35:15;;;;;;;0.70;0.70;;;7.10;99.90;;;;;;5091754;28;20638;-70
2023/05/07 06:37:45;;;;;;;0.70;0.70;;;7.20;99.90;;;;;;5067159;28;20297;-71
2023/05/07 06:40:11;;;;;;;0.70;0.70;;;7.20;99.90;;;;;;5055075;28;20190;-70
2023/05/07 06:42:37;;;;;;;0.60;0.60;;;7.40;99.90;;;;;;5054019;28;20194;-71
2023/05/07 06:45:03;;;;;;;0.70;0.70;;;7.60;99.90;;;;;;5054808;28;20278;-71
2023/05/07 06:47:29;;;;;;;0.70;0.70;;;7.80;99.90;;;;;;5054284;28;20611;-71
2023/05/07 06:49:55;;;;;;;0.63;0.63;;;7.80;99.90;;;;;;5068481;28;20201;-71
2023/05/07 06:52:21;;;;;;;0.60;0.60;;;7.90;99.90;;;;;;5069584;28;20617;-71
2023/05/07 06:54:46;;;;;;;0.68;0.68;;;7.90;99.90;;;;;;5073667;28;20254;-71
2023/05/07 06:57:12;;;;;;;0.70;0.70;;;8.10;99.90;;;;;;5074858;28;20744;-71
2023/05/07 06:59:38;;;;;;;0.70;0.70;;;8.10;99.90;;;;;;5074662;28;20263;-71
2023/05/07 07:02:03;;;;;;;0.65;0.65;;;8.40;99.90;;;;;;5074562;28;20717;-71
2023/05/07 07:04:29;;;;;;;0.73;0.73;;;8.50;99.90;;;;;;5070585;28;20275;-72
2023/05/07 07:06:56;;;;;;;0.70;0.70;;;8.50;99.90;;;;;;5074551;28;20213;-71
2023/05/07 07:09:22;;;;;;;0.60;0.60;;;8.70;99.90;;;;;;5074222;28;20189;-71
2023/05/07 07:11:50;;;;;;;1.42;0.82;;;8.80;99.90;;;;;;5074285;28;20225;-72
2023/05/07 07:14:15;;;;;;;0.68;0.68;;;8.90;99.90;;;;;;5073595;28;20193;-71
2023/05/07 07:16:41;;;;;;;0.57;0.57;;;9.20;99.90;;;;;;5074035;28;20209;-71
2023/05/07 07:19:07;;;;;;;0.70;0.70;;;9.30;99.90;;;;;;5074091;28;20193;-71
2023/05/07 07:21:33;;;;;;;0.65;0.65;;;9.40;99.90;;;;;;5073849;28;20197;-72
2023/05/07 07:23:58;;;;;;;0.55;0.55;;;9.90;99.90;;;;;;5056306;28;20279;-72
2023/05/07 07:26:24;;;;;;;0.52;0.52;;;10.20;99.90;;;;;;5073466;28;20185;-72
2023/05/07 07:28:50;;;;;;;0.60;0.60;;;10.20;99.90;;;;;;5056176;28;20196;-73
2023/05/07 07:31:15;;;;;;;0.80;0.80;;;10.10;99.90;;;;;;5088870;28;20197;-73
2023/05/07 07:33:41;;;;;;;0.90;0.90;;;10.00;99.90;;;;;;5094280;28;20556;-73
2023/05/07 07:36:07;;;;;;;0.60;0.60;;;10.20;99.90;;;;;;5076044;28;20278;-73
2023/05/07 07:38:33;;;;;;;0.60;0.60;;;10.60;99.90;;;;;;5072399;28;20212;-72
2023/05/07 07:41:00;;;;;;;0.60;0.60;;;10.40;99.90;;;;;;5053988;28;20197;-72
2023/05/07 07:43:26;;;;;;;0.60;0.60;;;10.70;99.90;;;;;;5053765;28;20228;-73
2023/05/07 07:45:51;;;;;;;0.50;0.50;;;10.90;99.90;;;;;;5065153;28;20246;-73
2023/05/07 07:48:17;;;;;;;0.60;0.60;;;11.30;99.90;;;;;;5074044;28;20224;-73
2023/05/07 07:50:43;;;;;;;0.50;0.50;;;11.20;99.90;;;;;;5074048;28;20219;-74
2023/05/07 07:53:08;;;;;;;0.50;0.50;;;11.50;99.90;;;;;;5073779;28;20204;-73
2023/05/07 07:55:39;;;;;;;1.13;1.02;;;11.80;99.90;;;;;;5073315;28;20188;-72
2023/05/07 07:58:05;;;;;;;0.50;0.50;;;12.00;99.90;;;;;;5073686;28;20215;-73
2023/05/07 08:00:30;;;;;;;0.65;0.65;;;12.20;99.90;;;;;;5073293;28;20193;-73
2023/05/07 08:02:56;;;;;;;0.50;0.50;;;12.10;99.90;;;;;;5073380;28;20679;-72
2023/05/07 08:05:23;;;;;;;0.60;0.60;;;12.00;99.70;;;;;;5072789;28;20189;-73
2023/05/07 08:07:51;;;;;;;2.75;2.22;;;11.80;99.90;;;;;;5073403;28;20279;-74
2023/05/07 08:10:21;;;;;;;0.73;0.73;;;12.10;99.90;;;;;;5067678;28;20250;-72
2023/05/07 08:12:50;;;;;;;0.60;0.60;;;12.10;99.90;;;;;;5072950;28;20668;-71
2023/05/07 08:15:16;;;;;;;0.50;0.50;;;13.10;99.90;;;;;;5073007;28;20273;-71
2023/05/07 08:17:43;;;;;;;0.45;0.45;;;13.30;99.90;;;;;;5072890;28;20208;-72
2023/05/07 08:20:09;;;;;;;0.75;0.55;;;14.00;99.90;;;;;;5073176;28;20193;-70
2023/05/07 08:22:36;;;;;;;0.40;0.40;;;14.50;99.90;;;;;;5073086;28;20260;-70
2023/05/07 08:25:02;;;;;;;0.43;0.43;;;15.30;98.80;;;;;;5073293;28;20189;-70
2023/05/07 08:27:28;;;;;;;1.85;0.68;;;15.20;97.90;;;;;;5069165;28;20277;-72
2023/05/07 08:29:54;;;;;;;0.40;0.40;;;15.80;96.90;;;;;;5092966;28;20223;-71
2023/05/07 08:32:20;;;;;;;0.40;0.40;;;16.10;96.60;;;;;;5092991;28;20224;-71
2023/05/07 08:34:47;;;;;;;0.32;0.32;;;16.40;94.70;;;;;;5074539;28;20200;-72
2023/05/07 08:37:13;;;;;;;0.55;0.55;;;15.40;93.60;;;;;;5090549;28;20317;-72
2023/05/07 08:39:38;;;;;;;0.40;0.40;;;15.20;95.80;;;;;;5072944;28;20224;-72
2023/05/07 08:42:04;;;;;;;0.80;0.63;;;14.70;94.80;;;;;;5072886;28;20260;-72
2023/05/07 08:44:37;;;;;;;0.40;0.40;;;15.20;95.60;;;;;;5072752;28;20238;-72
2023/05/07 08:47:05;;;;;;;0.30;0.30;;;15.60;93.30;;;;;;5072846;28;20231;-71
2023/05/07 08:49:33;;;;;;;0.30;0.30;;;15.40;94.10;;;;;;5072093;28;20616;-73
2023/05/07 08:51:59;;;;;;;0.30;0.30;;;15.70;93.50;;;;;;5072842;28;20671;-70
2023/05/07 08:54:25;;;;;;;0.30;0.30;;;15.60;93.50;;;;;;5072824;28;20731;-72
2023/05/07 08:56:51;;;;;;;0.30;0.30;;;15.20;91.60;;;;;;5072834;28;20210;-71
2023/05/07 08:59:17;;;;;;;0.65;0.65;;;15.20;93.20;;;;;;5072497;28;20192;-71
2023/05/07 09:01:43;;;;;;;0.35;0.35;;;15.20;90.80;;;;;;5072231;28;20633;-71
2023/05/07 09:04:09;;;;;;;0.40;0.40;;;14.20;91.90;;;;;;5072644;28;20612;-71
2023/05/07 09:06:35;;;;;;;0.30;0.30;;;14.60;91.50;;;;;;5074329;28;20203;-71
2023/05/07 09:09:01;;;;;;;0.30;0.30;;;14.80;93.50;;;;;;5076644;28;20238;-71
2023/05/07 09:11:27;;;;;;;0.30;0.30;;;15.00;91.30;;;;;;5076204;28;20553;-71
2023/05/07 09:13:59;;;;;;;0.40;0.40;;;15.00;90.90;;;;;;5076635;28;20193;-72
2023/05/07 09:16:25;;;;;;;0.52;0.52;;;14.60;91.10;;;;;;5076265;28;20655;-72
2023/05/07 09:18:53;;;;;;;3.25;0.55;;;15.10;91.80;;;;;;5058693;28;20212;-72
2023/05/07 09:21:20;;;;;;;0.30;0.30;;;15.80;90.50;;;;;;5076559;28;20239;-71
2023/05/07 09:23:52;;;;;;;0.30;0.30;;;15.30;88.10;;;;;;5091376;28;20685;-72
2023/05/07 09:26:20;;;;;;;0.45;0.45;;;15.70;90.90;;;;;;5096566;28;20659;-70
2023/05/07 09:28:46;;;;;;;0.30;0.30;;;16.30;90.30;;;;;;5096735;28;20200;-72
2023/05/07 09:31:12;;;;;;;0.30;0.30;;;17.00;87.60;;;;;;5096186;28;20196;-72
2023/05/07 09:33:39;;;;;;;0.43;0.43;;;16.20;82.60;;;;;;5095744;28;20192;-72
2023/05/07 09:36:09;;;;;;;0.30;0.30;;;15.00;84.80;;;;;;5096102;28;20191;-76
2023/05/07 09:38:36;;;;;;;0.50;0.50;;;15.20;87.20;;;;;;5081808;28;20207;-71
2023/05/07 09:41:10;;;;;;;0.38;0.38;;;16.00;87.60;;;;;;5076384;28;20294;-72
2023/05/07 09:43:37;;;;;;;0.30;0.30;;;16.40;83.40;;;;;;5075333;28;20235;-71
2023/05/07 09:46:14;;;;;;;0.38;0.38;;;15.70;82.60;;;;;;5075975;28;20283;-73
2023/05/07 09:48:41;;;;;;;0.30;0.30;;;16.20;87.70;;;;;;5075296;28;20188;-72
2023/05/07 09:51:26;;;;;;;0.32;0.32;;;16.10;83.00;;;;;;5075966;28;20280;-73
2023/05/07 09:53:53;;;;;;;0.50;0.50;;;16.60;83.50;;;;;;5075960;28;20272;-72
2023/05/07 09:56:19;;;;;;;0.30;0.30;;;17.30;81.00;;;;;;5057881;28;20568;-72
2023/05/07 09:58:47;;;;;;;0.45;0.45;;;16.90;78.20;;;;;;5075775;28;20258;-70
2023/05/07 10:01:13;;;;;;;0.35;0.35;;;16.60;79.50;;;;;;5075733;28;20602;-72
2023/05/07 10:03:44;;;;;;;0.90;0.70;;;16.60;81.10;;;;;;5069493;28;20242;-72
2023/05/07 10:06:10;;;;;;;6.60;1.25;;;17.00;81.80;;;;;;5075608;28;20280;-71
2023/05/07 10:08:37;;;;;;;0.30;0.30;;;17.60;78.70;;;;;;5062789;28;20250;-74
2023/05/07 10:11:06;;;;;;;0.28;0.28;;;17.20;75.10;;;;;;5075749;28;20197;-75
2023/05/07 10:13:38;;;;;;;0.22;0.22;;;17.00;79.10;;;;;;5075449;28;20197;-74
2023/05/07 10:16:05;;;;;;;0.30;0.30;;;17.10;81.00;;;;;;5075656;28;20208;-75
2023/05/07 10:18:33;;;;;;;0.40;0.40;;;17.00;82.80;;;;;;5076074;28;20580;-74
2023/05/07 10:21:17;;;;;;;0.38;0.38;;;17.60;79.00;;;;;;5095840;28;20184;-74
2023/05/07 10:23:46;;;;;;;1.00;0.85;;;17.50;75.50;;;;;;5095702;28;20567;-74
2023/05/07 10:26:13;;;;;;;7.15;0.80;;;16.70;76.00;;;;;;5077533;28;20196;-74
2023/05/07 10:28:43;;;;;;;0.38;0.38;;;16.90;77.40;;;;;;5095384;28;20188;-75
2023/05/07 10:31:38;;;;;;;0.65;0.65;;;17.70;77.30;;;;;;5095417;28;20550;-75
2023/05/07 10:34:10;;;;;;;0.57;0.57;;;17.20;75.30;;;;;;5048378;28;20586;-73
2023/05/07 10:36:36;;;;;;;0.40;0.40;;;17.20;83.90;;;;;;5054997;28;20243;-75
2023/05/07 10:39:02;;;;;;;0.30;0.30;;;17.70;82.10;;;;;;5072357;28;20197;-74
2023/05/07 10:41:27;;;;;;;0.30;0.30;;;18.20;78.50;;;;;;5075083;28;20559;-78
2023/05/07 10:43:53;;;;;;;0.40;0.40;;;18.30;77.80;;;;;;5074682;28;20284;-79
2023/05/07 10:46:20;;;;;;;0.63;0.55;;;19.00;77.80;;;;;;5056680;28;20207;-77
2023/05/07 10:49:02;;;;;;;0.55;0.55;;;19.60;74.50;;;;;;5074986;28;20698;-79
2023/05/07 10:51:30;;;;;;;0.43;0.40;;;19.00;73.50;;;;;;5074942;28;20189;-79
2023/05/07 10:54:19;;;;;;;0.40;0.40;;;18.90;70.50;;;;;;5056944;28;20197;-78
2023/05/07 10:56:47;;;;;;;0.47;0.47;;;18.60;73.20;;;;;;5061805;28;20578;-79
2023/05/07 10:59:27;;;;;;;0.47;0.40;;;19.00;72.50;;;;;;5074626;28;20208;-80
2023/05/07 11:01:57;;;;;;;0.25;0.25;;;18.50;70.60;;;;;;5074432;28;20276;-78
2023/05/07 11:04:26;;;;;;;0.45;0.45;;;18.50;75.80;;;;;;5074266;28;20203;-78
2023/05/07 11:07:08;;;;;;;0.20;0.20;;;17.60;72.00;;;;;;5074671;28;20196;-78
2023/05/07 11:10:03;;;;;;;0.38;0.38;;;17.80;71.50;;;;;;5056673;28;20291;-77
2023/05/07 11:12:38;;;;;;;0.68;0.63;;;17.60;73.00;;;;;;5056196;28;20199;-78
2023/05/07 11:15:05;;;;;;;0.30;0.30;;;18.70;75.80;;;;;;5060980;28;20294;-78
2023/05/07 11:17:34;;;;;;;2.03;1.08;;;18.30;70.60;;;;;;5093870;28;20200;-78
2023/05/07 11:20:01;;;;;;;0.40;0.40;;;18.60;75.50;;;;;;5094667;28;20703;-78
2023/05/07 11:22:32;;;;;;;0.52;0.30;;;18.30;69.10;;;;;;5094472;28;20188;-78
2023/05/07 11:25:03;;;;;;;1.23;0.95;;;18.50;69.60;;;;;;5094644;28;20215;-78
2023/05/07 11:27:29;;;;;;;0.35;0.35;;;18.40;70.60;;;;;;5076155;28;20203;-78
2023/05/07 11:29:56;;;;;;;0.30;0.30;;;18.40;73.00;;;;;;5090189;28;20258;-78
2023/05/07 11:32:28;;;;;;;0.30;0.30;;;18.20;69.50;;;;;;5074180;28;20197;-75
2023/05/07 11:34:55;;;;;;;0.52;0.52;;;18.40;70.80;;;;;;5074135;28;20207;-78
2023/05/07 11:37:22;;;;;;;0.20;0.20;;;18.60;68.80;;;;;;5073711;28;20562;-77
2023/05/07 11:39:48;;;;;;;0.52;0.52;;;19.20;72.30;;;;;;5074101;28;20191;-77
2023/05/07 11:42:29;;;;;;;0.40;0.40;;;19.60;68.60;;;;;;5073989;28;20185;-77
2023/05/07 11:44:55;;;;;;;0.40;0.40;;;18.40;66.10;;;;;;5073909;28;20193;-75
2023/05/07 11:47:21;;;;;;;0.40;0.40;;;17.80;68.80;;;;;;5073727;28;20193;-74
2023/05/07 11:49:54;;;;;;;0.30;0.30;;;17.60;69.50;;;;;;5055981;28;20200;-75
2023/05/07 11:52:22;;;;;;;0.30;0.30;;;17.50;68.80;;;;;;5055862;28;20209;-74
2023/05/07 11:54:57;;;;;;;0.30;0.30;;;17.10;70.30;;;;;;5073757;28;20193;-76
2023/05/07 11:57:27;;;;;;;0.30;0.30;;;18.00;73.00;;;;;;5073325;28;20262;-74
2023/05/07 11:59:57;;;;;;;0.30;0.30;;;18.50;67.70;;;;;;5073617;28;20273;-74
2023/05/07 12:02:24;;;;;;;0.30;0.30;;;18.70;70.90;;;;;;5072912;28;20954;-74
2023/05/07 12:04:50;;;;;;;0.40;0.40;;;18.70;66.30;;;;;;5064175;28;20724;-74
2023/05/07 12:07:17;;;;;;;0.25;0.25;;;18.20;67.00;;;;;;5072219;28;20704;-74
2023/05/07 12:09:44;;;;;;;0.28;0.28;;;17.70;67.10;;;;;;5073171;28;20189;-75
2023/05/07 12:12:10;;;;;;;0.20;0.20;;;17.60;66.50;;;;;;5084809;28;20693;-74
2023/05/07 12:14:40;;;;;;;0.73;0.65;;;18.10;69.20;;;;;;5093343;28;20199;-74
2023/05/07 12:17:09;;;;;;;0.38;0.38;;;17.80;65.10;;;;;;5093540;28;20246;-74
2023/05/07 12:19:36;;;;;;;0.47;0.47;;;18.40;69.00;;;;;;5093401;28;20195;-75
2023/05/07 12:22:08;;;;;;;0.30;0.30;;;19.20;68.10;;;;;;5075483;28;20188;-74
2023/05/07 12:24:47;;;;;;;0.45;0.45;;;19.70;70.10;;;;;;5093492;28;20227;-75
2023/05/07 12:27:14;;;;;;;0.40;0.40;;;19.30;62.00;;;;;;5080860;28;20366;-75
2023/05/07 12:29:44;;;;;;;0.30;0.30;;;19.10;67.50;;;;;;5073054;28;20250;-74
2023/05/07 12:32:17;;;;;;;0.20;0.20;;;18.40;64.10;;;;;;5073334;28;20208;-75
2023/05/07 12:34:44;;;;;;;0.35;0.35;;;19.00;68.10;;;;;;5073033;28;20220;-74
2023/05/07 12:37:10;;;;;;;0.40;0.40;;;19.10;65.60;;;;;;5072863;28;20284;-74
2023/05/07 12:39:36;;;;;;;0.30;0.30;;;18.90;63.00;;;;;;5072844;28;20558;-75
2023/05/07 12:42:02;;;;;;;0.38;0.38;;;18.70;65.90;;;;;;5072406;28;20193;-73
2023/05/07 12:44:35;;;;;;;0.20;0.20;;;18.50;63.80;;;;;;5072931;28;20189;-73
2023/05/07 12:47:03;;;;;;;3.15;0.98;;;18.80;69.80;;;;;;5072949;28;20189;-73
2023/05/07 12:49:29;;;;;;;0.30;0.30;;;18.90;64.60;;;;;;5072886;28;20204;-73